sensor_id;sensor_type;location;lat;lon;timestamp;pressure;altitude;pressure_sealevel;temperature;humidity
28027;BME280;15344;52.342;-1.290;2023-05-10T00:00:13;99698.67;;;16.48;77.56
28027;BME280;15344;52.342;-1.290;2023-05-10T00:02:38;99694.69;;;16.17;78.91
28027;BME280;15344;52.342;-1.290;2023-05-10T00:05:04;99692.39;;;16.88;77.10
28027;BME280;15344;52.342;-1.290;2023-05-10T00:07:29;99692.24;;;15.97;80.05
28027;BME280;15344;52.342;-1.290;2023-05-10T00:09:54;99696.26;;;16.00;80.87
28027;BME280;15344;52.342;-1.290;2023-05-10T00:12:19;99701.41;;;16.31;79.71
28027;BME280;15344;52.342;-1.290;2023-05-10T00:14:44;99702.91;;;16.41;79.16
28027;BME280;15344;52.342;-1.290;2023-05-10T00:17:09;99703.82;;;16.11;78.57
28027;BME280;15344;52.342;-1.290;2023-05-10T00:19:35;99701.69;;;16.28;79.86
28027;BME280;15344;52.342;-1.290;2023-05-10T00:22:00;99704.55;;;16.04;81.85
28027;BME280;15344;52.342;-1.290;2023-05-10T00:24:30;99706.68;;;16.34;79.79
28027;BME280;15344;52.342;-1.290;2023-05-10T00:26:50;99706.01;;;16.50;80.20
28027;BME280;15344;52.342;-1.290;2023-05-10T00:29:16;99701.65;;;15.86;81.59
28027;BME280;15344;52.342;-1.290;2023-05-10T00:31:41;99702.84;;;16.10;79.76
28027;BME280;15344;52.342;-1.290;2023-05-10T00:34:06;99701.17;;;16.07;79.78
28027;BME280;15344;52.342;-1.290;2023-05-10T00:36:32;99704.04;;;15.89;80.78
28027;BME280;15344;52.342;-1.290;2023-05-10T00:38:58;99709.00;;;15.97;79.89
28027;BME280;15344;52.342;-1.290;2023-05-10T00:41:23;99707.73;;;15.92;79.33
28027;BME280;15344;52.342;-1.290;2023-05-10T00:43:49;99706.22;;;15.85;80.70
28027;BME280;15344;52.342;-1.290;2023-05-10T00:46:14;99700.86;;;15.75;80.47
28027;BME280;15344;52.342;-1.290;2023-05-10T00:48:39;99704.06;;;15.89;79.63
28027;BME280;15344;52.342;-1.290;2023-05-10T00:51:05;99703.86;;;15.37;80.75
28027;BME280;15344;52.342;-1.290;2023-05-10T00:53:31;99703.02;;;16.13;78.15
28027;BME280;15344;52.342;-1.290;2023-05-10T00:55:56;99698.05;;;16.12;80.26
28027;BME280;15344;52.342;-1.290;2023-05-10T00:58:21;99697.92;;;15.44;81.02
28027;BME280;15344;52.342;-1.290;2023-05-10T01:00:46;99695.71;;;15.73;79.51
28027;BME280;15344;52.342;-1.290;2023-05-10T01:03:11;99702.39;;;15.34;80.79
28027;BME280;15344;52.342;-1.290;2023-05-10T01:05:37;99704.94;;;14.98;81.74
28027;BME280;15344;52.342;-1.290;2023-05-10T01:08:03;99709.19;;;15.99;78.33
28027;BME280;15344;52.342;-1.290;2023-05-10T01:10:28;99711.44;;;15.97;77.82
28027;BME280;15344;52.342;-1.290;2023-05-10T01:12:59;99710.21;;;15.62;79.21
28027;BME280;15344;52.342;-1.290;2023-05-10T01:15:20;99711.03;;;16.01;75.78
28027;BME280;15344;52.342;-1.290;2023-05-10T01:17:45;99711.49;;;15.28;78.60
28027;BME280;15344;52.342;-1.290;2023-05-10T01:20:11;99709.88;;;15.65;76.23
28027;BME280;15344;52.342;-1.290;2023-05-10T01:22:44;99708.70;;;16.25;74.89
28027;BME280;15344;52.342;-1.290;2023-05-10T01:25:17;99707.81;;;15.68;76.95
28027;BME280;15344;52.342;-1.290;2023-05-10T01:30:02;99713.16;;;14.72;80.28
28027;BME280;15344;52.342;-1.290;2023-05-10T01:32:24;99708.05;;;14.98;79.79
28027;BME280;15344;52.342;-1.290;2023-05-10T01:34:47;99705.96;;;15.62;78.20
28027;BME280;15344;52.342;-1.290;2023-05-10T01:37:10;99706.46;;;14.93;80.57
28027;BME280;15344;52.342;-1.290;2023-05-10T01:39:39;99708.03;;;15.07;80.26
28027;BME280;15344;52.342;-1.290;2023-05-10T01:42:03;99707.90;;;15.11;79.75
28027;BME280;15344;52.342;-1.290;2023-05-10T01:44:31;99707.74;;;15.18;77.56
28027;BME280;15344;52.342;-1.290;2023-05-10T01:46:53;99708.53;;;14.93;77.16
28027;BME280;15344;52.342;-1.290;2023-05-10T01:49:21;99714.44;;;14.91;79.29
28027;BME280;15344;52.342;-1.290;2023-05-10T01:51:46;99711.67;;;15.63;75.57
28027;BME280;15344;52.342;-1.290;2023-05-10T01:54:06;99712.81;;;15.22;77.56
28027;BME280;15344;52.342;-1.290;2023-05-10T01:56:34;99717.85;;;14.16;82.90
28027;BME280;15344;52.342;-1.290;2023-05-10T01:58:56;99716.23;;;14.13;81.64
28027;BME280;15344;52.342;-1.290;2023-05-10T02:01:21;99716.54;;;14.55;80.30
28027;BME280;15344;52.342;-1.290;2023-05-10T02:03:48;99719.66;;;14.66;80.36
28027;BME280;15344;52.342;-1.290;2023-05-10T02:06:13;99723.59;;;15.11;78.14
28027;BME280;15344;52.342;-1.290;2023-05-10T02:08:38;99724.95;;;13.74;84.74
28027;BME280;15344;52.342;-1.290;2023-05-10T02:11:03;99727.70;;;14.99;77.67
28027;BME280;15344;52.342;-1.290;2023-05-10T02:13:29;99729.54;;;14.41;81.56
28027;BME280;15344;52.342;-1.290;2023-05-10T02:15:53;99727.34;;;14.98;77.07
28027;BME280;15344;52.342;-1.290;2023-05-10T02:18:19;99731.14;;;14.35;80.47
28027;BME280;15344;52.342;-1.290;2023-05-10T02:20:46;99724.99;;;14.07;82.91
28027;BME280;15344;52.342;-1.290;2023-05-10T02:23:10;99720.52;;;15.09;75.91
28027;BME280;15344;52.342;-1.290;2023-05-10T02:25:34;99721.18;;;14.96;76.31
28027;BME280;15344;52.342;-1.290;2023-05-10T02:28:02;99719.14;;;14.72;77.22
28027;BME280;15344;52.342;-1.290;2023-05-10T02:30:25;99715.94;;;14.82;78.78
28027;BME280;15344;52.342;-1.290;2023-05-10T02:32:51;99720.59;;;14.44;79.86
28027;BME280;15344;52.342;-1.290;2023-05-10T02:35:16;99722.44;;;15.16;76.72
28027;BME280;15344;52.342;-1.290;2023-05-10T02:37:41;99721.02;;;14.69;78.41
28027;BME280;15344;52.342;-1.290;2023-05-10T02:40:07;99725.22;;;14.59;78.55
28027;BME280;15344;52.342;-1.290;2023-05-10T02:42:35;99729.85;;;14.52;79.05
28027;BME280;15344;52.342;-1.290;2023-05-10T02:45:00;99731.30;;;14.52;80.65
28027;BME280;15344;52.342;-1.290;2023-05-10T02:47:23;99730.40;;;14.58;80.14
28027;BME280;15344;52.342;-1.290;2023-05-10T02:49:48;99729.57;;;14.51;81.65
28027;BME280;15344;52.342;-1.290;2023-05-10T02:52:18;99730.01;;;14.38;82.58
28027;BME280;15344;52.342;-1.290;2023-05-10T02:54:43;99733.63;;;14.22;84.62
28027;BME280;15344;52.342;-1.290;2023-05-10T02:57:05;99737.04;;;14.28;85.29
28027;BME280;15344;52.342;-1.290;2023-05-10T02:59:29;99738.02;;;14.71;84.60
28027;BME280;15344;52.342;-1.290;2023-05-10T03:01:54;99742.23;;;14.96;83.27
28027;BME280;15344;52.342;-1.290;2023-05-10T03:04:20;99743.73;;;14.18;85.78
28027;BME280;15344;52.342;-1.290;2023-05-10T03:06:45;99741.77;;;14.63;84.37
28027;BME280;15344;52.342;-1.290;2023-05-10T03:09:11;99742.30;;;14.48;85.34
28027;BME280;15344;52.342;-1.290;2023-05-10T03:11:46;99742.55;;;13.73;89.01
28027;BME280;15344;52.342;-1.290;2023-05-10T03:14:10;99744.39;;;13.99;89.34
28027;BME280;15344;52.342;-1.290;2023-05-10T03:16:32;99747.22;;;14.19;88.75
28027;BME280;15344;52.342;-1.290;2023-05-10T03:19:00;99749.71;;;14.25;89.05
28027;BME280;15344;52.342;-1.290;2023-05-10T03:21:19;99749.65;;;14.72;86.39
28027;BME280;15344;52.342;-1.290;2023-05-10T03:23:47;99751.17;;;14.48;87.45
28027;BME280;15344;52.342;-1.290;2023-05-10T03:26:12;99748.77;;;14.49;87.31
28027;BME280;15344;52.342;-1.290;2023-05-10T03:28:36;99744.86;;;14.95;85.41
28027;BME280;15344;52.342;-1.290;2023-05-10T03:31:01;99747.48;;;14.94;85.41
28027;BME280;15344;52.342;-1.290;2023-05-10T03:33:26;99743.86;;;14.54;86.29
28027;BME280;15344;52.342;-1.290;2023-05-10T03:35:51;99740.60;;;15.11;85.01
28027;BME280;15344;52.342;-1.290;2023-05-10T03:38:17;99740.21;;;15.30;84.45
28027;BME280;15344;52.342;-1.290;2023-05-10T03:40:42;99741.13;;;14.91;84.55
28027;BME280;15344;52.342;-1.290;2023-05-10T03:43:07;99741.50;;;15.46;82.75
28027;BME280;15344;52.342;-1.290;2023-05-10T03:45:33;99742.88;;;15.11;82.90
28027;BME280;15344;52.342;-1.290;2023-05-10T03:47:58;99747.94;;;15.30;82.48
28027;BME280;15344;52.342;-1.290;2023-05-10T03:50:24;99749.20;;;15.43;81.10
28027;BME280;15344;52.342;-1.290;2023-05-10T03:52:49;99746.80;;;15.42;82.37
28027;BME280;15344;52.342;-1.290;2023-05-10T03:55:15;99750.78;;;15.19;82.15
28027;BME280;15344;52.342;-1.290;2023-05-10T03:57:41;99752.42;;;15.59;80.44
28027;BME280;15344;52.342;-1.290;2023-05-10T04:00:07;99755.17;;;15.60;80.77
28027;BME280;15344;52.342;-1.290;2023-05-10T04:02:31;99756.51;;;15.36;81.24
28027;BME280;15344;52.342;-1.290;2023-05-10T04:04:57;99764.14;;;15.33;82.54
28027;BME280;15344;52.342;-1.290;2023-05-10T04:07:23;99759.21;;;15.76;81.72
28027;BME280;15344;52.342;-1.290;2023-05-10T04:09:47;99765.16;;;15.43;82.27
28027;BME280;15344;52.342;-1.290;2023-05-10T04:12:13;99768.96;;;15.25;83.03
28027;BME280;15344;52.342;-1.290;2023-05-10T04:14:38;99766.84;;;15.70;82.70
28027;BME280;15344;52.342;-1.290;2023-05-10T04:17:04;99773.23;;;14.39;88.80
28027;BME280;15344;52.342;-1.290;2023-05-10T04:19:30;99774.69;;;14.77;88.69
28027;BME280;15344;52.342;-1.290;2023-05-10T04:21:55;99775.24;;;14.99;88.22
28027;BME280;15344;52.342;-1.290;2023-05-10T04:24:21;99775.21;;;15.05;89.67
28027;BME280;15344;52.342;-1.290;2023-05-10T04:26:46;99774.11;;;14.43;91.55
28027;BME280;15344;52.342;-1.290;2023-05-10T04:29:18;99771.04;;;14.63;93.00
28027;BME280;15344;52.342;-1.290;2023-05-10T04:31:38;99768.70;;;14.85;91.42
28027;BME280;15344;52.342;-1.290;2023-05-10T04:34:03;99769.84;;;14.17;93.71
28027;BME280;15344;52.342;-1.290;2023-05-10T04:36:29;99770.84;;;14.79;92.05
28027;BME280;15344;52.342;-1.290;2023-05-10T04:38:54;99770.98;;;14.22;93.69
28027;BME280;15344;52.342;-1.290;2023-05-10T04:41:20;99770.39;;;14.25;91.76
28027;BME280;15344;52.342;-1.290;2023-05-10T04:43:45;99771.95;;;14.35;93.73
28027;BME280;15344;52.342;-1.290;2023-05-10T04:46:10;99776.77;;;14.11;94.83
28027;BME280;15344;52.342;-1.290;2023-05-10T04:48:36;99776.83;;;14.61;92.19
28027;BME280;15344;52.342;-1.290;2023-05-10T04:51:02;99777.43;;;14.59;91.26
28027;BME280;15344;52.342;-1.290;2023-05-10T04:53:27;99776.87;;;15.07;89.73
28027;BME280;15344;52.342;-1.290;2023-05-10T04:55:53;99779.11;;;14.83;89.62
28027;BME280;15344;52.342;-1.290;2023-05-10T04:58:19;99779.28;;;14.80;91.12
28027;BME280;15344;52.342;-1.290;2023-05-10T05:00:44;99779.48;;;13.97;94.19
28027;BME280;15344;52.342;-1.290;2023-05-10T05:03:10;99785.11;;;14.58;90.97
28027;BME280;15344;52.342;-1.290;2023-05-10T05:05:35;99789.54;;;14.65;92.36
28027;BME280;15344;52.342;-1.290;2023-05-10T05:08:00;99785.63;;;14.03;93.87
28027;BME280;15344;52.342;-1.290;2023-05-10T05:10:26;99789.14;;;13.51;95.52
28027;BME280;15344;52.342;-1.290;2023-05-10T05:12:51;99793.94;;;15.13;88.99
28027;BME280;15344;52.342;-1.290;2023-05-10T05:15:17;99792.93;;;14.74;88.78
28027;BME280;15344;52.342;-1.290;2023-05-10T05:17:42;99794.07;;;14.73;88.71
28027;BME280;15344;52.342;-1.290;2023-05-10T05:20:08;99799.59;;;14.85;88.27
28027;BME280;15344;52.342;-1.290;2023-05-10T05:22:33;99802.48;;;14.37;88.61
28027;BME280;15344;52.342;-1.290;2023-05-10T05:24:58;99806.27;;;14.71;87.37
28027;BME280;15344;52.342;-1.290;2023-05-10T05:27:24;99806.97;;;15.27;85.14
28027;BME280;15344;52.342;-1.290;2023-05-10T05:29:49;99807.02;;;14.66;86.76
28027;BME280;15344;52.342;-1.290;2023-05-10T05:32:14;99808.79;;;14.10;90.92
28027;BME280;15344;52.342;-1.290;2023-05-10T05:34:39;99809.36;;;14.62;88.18
28027;BME280;15344;52.342;-1.290;2023-05-10T05:37:05;99809.81;;;15.24;87.21
28027;BME280;15344;52.342;-1.290;2023-05-10T05:39:30;99812.29;;;14.57;87.54
28027;BME280;15344;52.342;-1.290;2023-05-10T05:41:55;99812.98;;;14.67;88.01
28027;BME280;15344;52.342;-1.290;2023-05-10T05:44:20;99808.92;;;14.23;89.42
28027;BME280;15344;52.342;-1.290;2023-05-10T05:46:46;99812.96;;;14.70;89.07
28027;BME280;15344;52.342;-1.290;2023-05-10T05:49:11;99815.63;;;14.93;87.91
28027;BME280;15344;52.342;-1.290;2023-05-10T05:51:37;99817.59;;;15.11;87.33
28027;BME280;15344;52.342;-1.290;2023-05-10T05:54:02;99817.79;;;14.60;87.52
28027;BME280;15344;52.342;-1.290;2023-05-10T05:56:28;99818.57;;;14.78;87.86
28027;BME280;15344;52.342;-1.290;2023-05-10T05:58:53;99823.17;;;14.16;91.65
28027;BME280;15344;52.342;-1.290;2023-05-10T06:01:18;99822.44;;;14.21;92.67
28027;BME280;15344;52.342;-1.290;2023-05-10T06:03:43;99830.86;;;14.33;91.19
28027;BME280;15344;52.342;-1.290;2023-05-10T06:06:08;99832.71;;;14.69;90.60
28027;BME280;15344;52.342;-1.290;2023-05-10T06:08:34;99832.83;;;14.50;92.19
28027;BME280;15344;52.342;-1.290;2023-05-10T06:10:59;99833.85;;;14.64;90.21
28027;BME280;15344;52.342;-1.290;2023-05-10T06:13:24;99841.00;;;15.07;89.43
28027;BME280;15344;52.342;-1.290;2023-05-10T06:15:50;99840.65;;;15.29;88.85
28027;BME280;15344;52.342;-1.290;2023-05-10T06:18:15;99842.13;;;15.19;88.74
28027;BME280;15344;52.342;-1.290;2023-05-10T06:20:41;99840.62;;;14.83;91.05
28027;BME280;15344;52.342;-1.290;2023-05-10T06:23:06;99836.43;;;14.62;93.40
28027;BME280;15344;52.342;-1.290;2023-05-10T06:25:31;99836.02;;;14.72;95.03
28027;BME280;15344;52.342;-1.290;2023-05-10T06:27:56;99833.46;;;14.62;94.56
28027;BME280;15344;52.342;-1.290;2023-05-10T06:30:22;99841.09;;;15.23;92.35
28027;BME280;15344;52.342;-1.290;2023-05-10T06:32:47;99839.64;;;15.01;93.89
28027;BME280;15344;52.342;-1.290;2023-05-10T06:35:13;99844.17;;;15.57;91.13
28027;BME280;15344;52.342;-1.290;2023-05-10T06:37:38;99853.53;;;15.68;91.15
28027;BME280;15344;52.342;-1.290;2023-05-10T06:40:05;99854.01;;;15.16;92.64
28027;BME280;15344;52.342;-1.290;2023-05-10T06:42:29;99852.52;;;15.32;91.67
28027;BME280;15344;52.342;-1.290;2023-05-10T06:44:54;99855.94;;;14.55;93.13
28027;BME280;15344;52.342;-1.290;2023-05-10T06:47:19;99857.54;;;15.77;89.80
28027;BME280;15344;52.342;-1.290;2023-05-10T06:49:44;99862.57;;;15.58;89.73
28027;BME280;15344;52.342;-1.290;2023-05-10T06:52:10;99861.16;;;15.72;90.76
28027;BME280;15344;52.342;-1.290;2023-05-10T06:54:35;99865.07;;;15.29;90.74
28027;BME280;15344;52.342;-1.290;2023-05-10T06:57:00;99863.73;;;15.65;90.50
28027;BME280;15344;52.342;-1.290;2023-05-10T06:59:26;99863.08;;;15.18;93.16
28027;BME280;15344;52.342;-1.290;2023-05-10T07:01:52;99861.33;;;16.13;92.55
28027;BME280;15344;52.342;-1.290;2023-05-10T07:04:17;99860.39;;;15.88;92.03
28027;BME280;15344;52.342;-1.290;2023-05-10T07:06:42;99860.23;;;16.44;91.52
28027;BME280;15344;52.342;-1.290;2023-05-10T07:09:07;99860.77;;;17.26;90.93
28027;BME280;15344;52.342;-1.290;2023-05-10T07:11:32;99857.53;;;17.53;85.29
28027;BME280;15344;52.342;-1.290;2023-05-10T07:13:58;99858.77;;;19.15;78.44
28027;BME280;15344;52.342;-1.290;2023-05-10T07:16:23;99853.76;;;20.26;75.64
28027;BME280;15344;52.342;-1.290;2023-05-10T07:18:48;99856.39;;;20.77;70.96
28027;BME280;15344;52.342;-1.290;2023-05-10T07:21:13;99857.97;;;21.59;65.08
28027;BME280;15344;52.342;-1.290;2023-05-10T07:23:38;99860.79;;;21.81;63.89
28027;BME280;15344;52.342;-1.290;2023-05-10T07:26:03;99856.99;;;21.89;61.72
28027;BME280;15344;52.342;-1.290;2023-05-10T07:28:29;99859.97;;;23.18;61.09
28027;BME280;15344;52.342;-1.290;2023-05-10T07:30:54;99855.88;;;23.10;57.37
28027;BME280;15344;52.342;-1.290;2023-05-10T07:33:20;99855.28;;;23.89;54.51
28027;BME280;15344;52.342;-1.290;2023-05-10T07:35:46;99851.09;;;23.75;54.30
28027;BME280;15344;52.342;-1.290;2023-05-10T07:38:12;99848.19;;;24.85;54.82
28027;BME280;15344;52.342;-1.290;2023-05-10T07:40:39;99852.48;;;23.82;54.17
28027;BME280;15344;52.342;-1.290;2023-05-10T07:43:03;99854.22;;;24.92;51.49
28027;BME280;15344;52.342;-1.290;2023-05-10T07:45:29;99854.10;;;24.39;50.29
28027;BME280;15344;52.342;-1.290;2023-05-10T07:47:55;99860.31;;;22.79;51.97
28027;BME280;15344;52.342;-1.290;2023-05-10T07:50:21;99854.82;;;22.23;53.32
28027;BME280;15344;52.342;-1.290;2023-05-10T07:52:46;99854.18;;;22.65;57.09
28027;BME280;15344;52.342;-1.290;2023-05-10T07:55:12;99852.15;;;23.82;51.61
28027;BME280;15344;52.342;-1.290;2023-05-10T07:57:38;99854.26;;;22.64;52.72
28027;BME280;15344;52.342;-1.290;2023-05-10T08:00:05;99853.84;;;23.89;50.91
28027;BME280;15344;52.342;-1.290;2023-05-10T08:02:30;99857.76;;;25.92;49.83
28027;BME280;15344;52.342;-1.290;2023-05-10T08:04:55;99854.84;;;24.90;49.66
28027;BME280;15344;52.342;-1.290;2023-05-10T08:07:21;99855.23;;;25.12;49.15
28027;BME280;15344;52.342;-1.290;2023-05-10T08:09:47;99853.18;;;24.31;51.71
28027;BME280;15344;52.342;-1.290;2023-05-10T08:12:13;99854.08;;;26.28;48.93
28027;BME280;15344;52.342;-1.290;2023-05-10T08:14:38;99854.67;;;26.19;50.01
28027;BME280;15344;52.342;-1.290;2023-05-10T08:17:04;99856.78;;;26.22;46.06
28027;BME280;15344;52.342;-1.290;2023-05-10T08:19:30;99860.65;;;25.58;45.13
28027;BME280;15344;52.342;-1.290;2023-05-10T08:21:55;99864.23;;;26.28;46.84
28027;BME280;15344;52.342;-1.290;2023-05-10T08:24:21;99866.65;;;26.25;47.29
28027;BME280;15344;52.342;-1.290;2023-05-10T08:26:47;99863.59;;;25.96;48.07
28027;BME280;15344;52.342;-1.290;2023-05-10T08:29:13;99862.06;;;26.38;46.66
28027;BME280;15344;52.342;-1.290;2023-05-10T08:31:39;99860.06;;;25.42;46.59
28027;BME280;15344;52.342;-1.290;2023-05-10T08:34:04;99866.87;;;26.91;43.83
28027;BME280;15344;52.342;-1.290;2023-05-10T08:36:30;99867.53;;;26.97;43.43
28027;BME280;15344;52.342;-1.290;2023-05-10T08:38:56;99868.99;;;27.19;44.49
28027;BME280;15344;52.342;-1.290;2023-05-10T08:41:22;99871.56;;;26.91;45.13
28027;BME280;15344;52.342;-1.290;2023-05-10T08:43:47;99873.29;;;27.57;44.15
28027;BME280;15344;52.342;-1.290;2023-05-10T08:46:16;99867.27;;;28.66;43.28
28027;BME280;15344;52.342;-1.290;2023-05-10T08:48:39;99871.67;;;26.95;42.85
28027;BME280;15344;52.342;-1.290;2023-05-10T08:51:04;99873.19;;;26.02;45.00
28027;BME280;15344;52.342;-1.290;2023-05-10T08:53:31;99875.07;;;25.23;45.81
28027;BME280;15344;52.342;-1.290;2023-05-10T08:55:55;99876.34;;;24.45;45.76
28027;BME280;15344;52.342;-1.290;2023-05-10T08:58:21;99869.89;;;24.62;48.03
28027;BME280;15344;52.342;-1.290;2023-05-10T09:00:48;99872.49;;;24.91;49.24
28027;BME280;15344;52.342;-1.290;2023-05-10T09:03:13;99869.00;;;24.91;47.73
28027;BME280;15344;52.342;-1.290;2023-05-10T09:05:38;99870.32;;;24.94;47.80
28027;BME280;15344;52.342;-1.290;2023-05-10T09:08:05;99871.70;;;23.99;49.54
28027;BME280;15344;52.342;-1.290;2023-05-10T09:10:30;99874.03;;;24.19;51.84
28027;BME280;15344;52.342;-1.290;2023-05-10T09:12:56;99867.16;;;24.55;51.32
28027;BME280;15344;52.342;-1.290;2023-05-10T09:15:21;99866.64;;;24.43;50.99
28027;BME280;15344;52.342;-1.290;2023-05-10T09:17:47;99869.24;;;24.30;51.99
28027;BME280;15344;52.342;-1.290;2023-05-10T09:20:13;99869.95;;;22.52;54.42
28027;BME280;15344;52.342;-1.290;2023-05-10T09:22:38;99870.50;;;23.19;53.00
28027;BME280;15344;52.342;-1.290;2023-05-10T09:25:06;99870.39;;;22.86;53.30
28027;BME280;15344;52.342;-1.290;2023-05-10T09:27:30;99873.41;;;23.46;53.70
28027;BME280;15344;52.342;-1.290;2023-05-10T09:29:56;99871.93;;;23.09;52.28
28027;BME280;15344;52.342;-1.290;2023-05-10T09:32:22;99875.80;;;23.10;53.89
28027;BME280;15344;52.342;-1.290;2023-05-10T09:34:50;99874.73;;;23.13;52.16
28027;BME280;15344;52.342;-1.290;2023-05-10T09:37:13;99869.38;;;22.39;52.89
28027;BME280;15344;52.342;-1.290;2023-05-10T09:39:39;99876.97;;;23.05;53.55
28027;BME280;15344;52.342;-1.290;2023-05-10T09:42:06;99874.08;;;22.31;52.19
28027;BME280;15344;52.342;-1.290;2023-05-10T09:44:31;99878.30;;;23.17;51.07
28027;BME280;15344;52.342;-1.290;2023-05-10T09:46:56;99874.65;;;21.92;52.97
28027;BME280;15344;52.342;-1.290;2023-05-10T09:49:23;99881.16;;;21.28;55.26
28027;BME280;15344;52.342;-1.290;2023-05-10T09:51:47;99880.12;;;21.93;54.83
28027;BME280;15344;52.342;-1.290;2023-05-10T09:54:14;99880.37;;;22.07;55.30
28027;BME280;15344;52.342;-1.290;2023-05-10T09:56:38;99879.74;;;20.35;60.79
28027;BME280;15344;52.342;-1.290;2023-05-10T09:59:03;99880.79;;;20.22;60.59
28027;BME280;15344;52.342;-1.290;2023-05-10T10:01:28;99883.78;;;21.18;58.90
28027;BME280;15344;52.342;-1.290;2023-05-10T10:03:53;99887.40;;;20.48;60.71
28027;BME280;15344;52.342;-1.290;2023-05-10T10:06:19;99888.53;;;21.55;59.98
28027;BME280;15344;52.342;-1.290;2023-05-10T10:08:43;99890.87;;;20.41;65.37
28027;BME280;15344;52.342;-1.290;2023-05-10T10:11:08;99892.79;;;19.58;69.78
28027;BME280;15344;52.342;-1.290;2023-05-10T10:13:33;99892.38;;;20.57;69.57
28027;BME280;15344;52.342;-1.290;2023-05-10T10:15:58;99895.47;;;20.14;71.08
28027;BME280;15344;52.342;-1.290;2023-05-10T10:18:23;99890.03;;;20.25;75.18
28027;BME280;15344;52.342;-1.290;2023-05-10T10:20:48;99890.89;;;20.62;75.09
28027;BME280;15344;52.342;-1.290;2023-05-10T10:23:13;99885.88;;;20.83;71.00
28027;BME280;15344;52.342;-1.290;2023-05-10T10:25:38;99884.87;;;21.64;69.46
28027;BME280;15344;52.342;-1.290;2023-05-10T10:28:13;99886.33;;;22.19;66.16
28027;BME280;15344;52.342;-1.290;2023-05-10T10:30:35;99885.13;;;21.85;63.85
28027;BME280;15344;52.342;-1.290;2023-05-10T10:33:10;99885.18;;;22.77;64.39
28027;BME280;15344;52.342;-1.290;2023-05-10T10:35:18;99879.78;;;22.13;63.54
28027;BME280;15344;52.342;-1.290;2023-05-10T10:37:44;99885.21;;;23.35;62.36
28027;BME280;15344;52.342;-1.290;2023-05-10T10:47:29;99873.99;;;22.73;57.06
28027;BME280;15344;52.342;-1.290;2023-05-10T10:52:24;99869.06;;;22.27;55.83
28027;BME280;15344;52.342;-1.290;2023-05-10T10:54:50;99868.79;;;21.12;59.87
28027;BME280;15344;52.342;-1.290;2023-05-10T10:57:11;99863.62;;;21.85;59.36
28027;BME280;15344;52.342;-1.290;2023-05-10T10:59:34;99867.22;;;21.99;57.73
28027;BME280;15344;52.342;-1.290;2023-05-10T11:01:59;99862.63;;;21.97;57.48
28027;BME280;15344;52.342;-1.290;2023-05-10T11:04:25;99862.36;;;21.19;57.24
28027;BME280;15344;52.342;-1.290;2023-05-10T11:06:50;99860.35;;;22.36;57.38
28027;BME280;15344;52.342;-1.290;2023-05-10T11:09:15;99862.72;;;22.88;55.99
28027;BME280;15344;52.342;-1.290;2023-05-10T11:11:51;99859.78;;;23.26;54.21
28027;BME280;15344;52.342;-1.290;2023-05-10T11:14:07;99857.43;;;23.67;54.98
28027;BME280;15344;52.342;-1.290;2023-05-10T11:16:41;99854.17;;;23.97;59.04
28027;BME280;15344;52.342;-1.290;2023-05-10T11:19:00;99852.55;;;22.77;52.22
28027;BME280;15344;52.342;-1.290;2023-05-10T11:21:24;99853.35;;;23.09;52.42
28027;BME280;15344;52.342;-1.290;2023-05-10T11:23:51;99852.95;;;21.33;54.83
28027;BME280;15344;52.342;-1.290;2023-05-10T11:26:15;99850.46;;;22.05;59.45
28027;BME280;15344;52.342;-1.290;2023-05-10T11:28:41;99849.15;;;22.62;58.72
28027;BME280;15344;52.342;-1.290;2023-05-10T11:31:07;99849.62;;;23.07;54.61
28027;BME280;15344;52.342;-1.290;2023-05-10T11:33:42;99846.68;;;22.08;56.87
28027;BME280;15344;52.342;-1.290;2023-05-10T11:35:58;99850.61;;;23.14;57.96
28027;BME280;15344;52.342;-1.290;2023-05-10T11:38:24;99846.50;;;22.01;57.46
28027;BME280;15344;52.342;-1.290;2023-05-10T11:40:52;99853.15;;;23.25;56.61
28027;BME280;15344;52.342;-1.290;2023-05-10T11:43:16;99852.22;;;23.52;54.72
28027;BME280;15344;52.342;-1.290;2023-05-10T11:45:42;99851.46;;;23.23;53.38
28027;BME280;15344;52.342;-1.290;2023-05-10T11:48:13;99843.44;;;23.63;51.49
28027;BME280;15344;52.342;-1.290;2023-05-10T11:50:33;99842.68;;;23.53;58.63
28027;BME280;15344;52.342;-1.290;2023-05-10T11:52:59;99837.89;;;23.64;59.45
28027;BME280;15344;52.342;-1.290;2023-05-10T11:55:25;99841.47;;;23.45;54.40
28027;BME280;15344;52.342;-1.290;2023-05-10T11:57:52;99838.21;;;22.93;53.13
28027;BME280;15344;52.342;-1.290;2023-05-10T12:00:17;99842.01;;;23.14;54.33
28027;BME280;15344;52.342;-1.290;2023-05-10T12:02:43;99836.62;;;23.20;50.87
28027;BME280;15344;52.342;-1.290;2023-05-10T12:05:09;99835.00;;;23.31;48.59
28027;BME280;15344;52.342;-1.290;2023-05-10T12:07:34;99830.69;;;22.97;51.69
28027;BME280;15344;52.342;-1.290;2023-05-10T12:10:05;99830.88;;;21.65;52.61
28027;BME280;15344;52.342;-1.290;2023-05-10T12:12:26;99835.47;;;22.19;55.16
28027;BME280;15344;52.342;-1.290;2023-05-10T12:14:52;99840.65;;;22.90;53.82
28027;BME280;15344;52.342;-1.290;2023-05-10T12:17:17;99837.61;;;22.48;57.25
28027;BME280;15344;52.342;-1.290;2023-05-10T12:19:42;99841.67;;;22.60;58.21
28027;BME280;15344;52.342;-1.290;2023-05-10T12:22:08;99833.26;;;22.10;63.59
28027;BME280;15344;52.342;-1.290;2023-05-10T12:24:34;99831.95;;;22.17;67.92
28027;BME280;15344;52.342;-1.290;2023-05-10T12:26:57;99833.03;;;23.16;67.03
28027;BME280;15344;52.342;-1.290;2023-05-10T12:29:22;99833.67;;;22.70;64.93
28027;BME280;15344;52.342;-1.290;2023-05-10T12:31:52;99831.94;;;21.56;65.40
28027;BME280;15344;52.342;-1.290;2023-05-10T12:36:38;99838.76;;;23.21;59.85
28027;BME280;15344;52.342;-1.290;2023-05-10T12:39:03;99837.39;;;23.57;59.65
28027;BME280;15344;52.342;-1.290;2023-05-10T12:41:28;99834.84;;;23.43;58.21
28027;BME280;15344;52.342;-1.290;2023-05-10T12:43:53;99830.09;;;23.26;58.47
28027;BME280;15344;52.342;-1.290;2023-05-10T12:46:18;99824.42;;;24.44;57.08
28027;BME280;15344;52.342;-1.290;2023-05-10T12:48:44;99824.45;;;23.78;56.48
28027;BME280;15344;52.342;-1.290;2023-05-10T12:51:10;99825.54;;;23.70;64.09
28027;BME280;15344;52.342;-1.290;2023-05-10T12:53:36;99819.91;;;24.58;60.39